^^
Saratoga-Weather Station Historical Data
Daily Summary for October 6, 2021 Units:  Metric    English   Both
Daily Weekly Monthly Yearly Custom
  High: Low: Average:
Temperature: 12.4 °C 9.5 °C 10.8 °C
Dew Point: 10.7 °C 8.5 °C 9.5 °C
Humidity: 95% 82% 92%
Wind Speed: 16.3km/h 0km/h 4km/h
Wind Gust: 22.5km/h - -
Wind- - West
Pressure: 1023.4 hPa 1012.5 hPa -
Precipitation: 5.6 mm    
Historical Graphs
 
 
Tabular Data for October 6, 2021
Time Temperature Dew Point Pressure Wind Wind Speed Wind Gust Humidity Rainfall Rate (Hourly) solar
00:04 10.6 °C 9.7 °C 1012.5 hPa SSE 4.7 km/h 4.8 km/h 94% 0.2 mm 0 W/m2
00:09 10.6 °C 9.7 °C 1012.5 hPa West 3.2 km/h 4.8 km/h 94% 0.2 mm 0 W/m2
00:14 10.6 °C 9.7 °C 1012.5 hPa NNW 3.2 km/h 6.4 km/h 94% 0.2 mm 0 W/m2
00:19 10.6 °C 9.5 °C 1012.5 hPa NW 3.2 km/h 4.8 km/h 93% 0.2 mm 0 W/m2
00:24 10.6 °C 9.5 °C 1012.5 hPa NNW 3.2 km/h 3.2 km/h 93% 0.2 mm 0 W/m2
00:29 10.5 °C 9.4 °C 1012.9 hPa NW 3.2 km/h 3.2 km/h 93% 0.2 mm 0 W/m2
00:34 10.4 °C 9.3 °C 1012.9 hPa Calm   4.8 km/h 93% 0.2 mm 0 W/m2
00:39 10.4 °C 9.3 °C 1012.9 hPa West 1.4 km/h 6.4 km/h 93% 0.0 mm 0 W/m2
00:44 10.4 °C 9.3 °C 1012.9 hPa South 1.4 km/h 3.2 km/h 93% 0.0 mm 0 W/m2
00:49 10.4 °C 9.3 °C 1012.9 hPa NNW 4.7 km/h 4.8 km/h 93% 0.0 mm 0 W/m2
00:54 10.4 °C 9.3 °C 1012.9 hPa WNW 7.9 km/h 9.7 km/h 93% 0.0 mm 0 W/m2
00:59 10.4 °C 9.3 °C 1012.9 hPa Calm   4.8 km/h 93% 0.0 mm 0 W/m2
01:04 10.4 °C 9.3 °C 1013.2 hPa Calm   9.7 km/h 93% 0.0 mm 0 W/m2
01:09 10.4 °C 9.2 °C 1013.2 hPa SW 4.7 km/h 9.7 km/h 92% 0.0 mm 0 W/m2
01:14 10.3 °C 9.2 °C 1013.2 hPa Calm   3.2 km/h 93% 0.0 mm 0 W/m2
01:19 10.2 °C 9.1 °C 1013.2 hPa ENE 3.2 km/h 4.8 km/h 93% 0.0 mm 0 W/m2
01:24 10.2 °C 9 °C 1013.2 hPa NNW 1.4 km/h 4.8 km/h 92% 0.0 mm 0 W/m2
01:29 10.1 °C 9 °C 1013.2 hPa SSE 3.2 km/h 4.8 km/h 93% 0.0 mm 0 W/m2
01:34 10 °C 8.9 °C 1013.5 hPa Calm     93% 0.0 mm 0 W/m2
01:39 9.9 °C 8.8 °C 1013.5 hPa ESE 1.4 km/h 4.8 km/h 93% 0.0 mm 0 W/m2
01:44 9.9 °C 8.8 °C 1013.5 hPa SE 6.4 km/h 11.3 km/h 93% 0.0 mm 0 W/m2
01:49 9.9 °C 8.8 °C 1013.5 hPa NW 3.2 km/h 3.2 km/h 93% 0.0 mm 0 W/m2
01:54 9.9 °C 8.8 °C 1013.5 hPa ESE 1.4 km/h 1.6 km/h 93% 0.0 mm 0 W/m2
01:59 9.8 °C 8.7 °C 1013.5 hPa SE 3.2 km/h 3.2 km/h 93% 0.0 mm 0 W/m2
02:04 9.8 °C 8.7 °C 1013.5 hPa Calm   9.7 km/h 93% 0.0 mm 0 W/m2
02:09 9.8 °C 8.7 °C 1013.5 hPa ENE 1.4 km/h 3.2 km/h 93% 0.0 mm 0 W/m2
02:14 9.8 °C 8.7 °C 1013.5 hPa SE 1.4 km/h 9.7 km/h 93% 0.0 mm 0 W/m2
02:19 9.7 °C 8.6 °C 1013.5 hPa WNW 1.4 km/h 4.8 km/h 93% 0.0 mm 0 W/m2
02:24 9.7 °C 8.6 °C 1013.5 hPa East 3.2 km/h 4.8 km/h 93% 0.0 mm 0 W/m2
02:29 9.6 °C 8.5 °C 1013.5 hPa Calm   6.4 km/h 93% 0.0 mm 0 W/m2
02:34 9.6 °C 8.5 °C 1013.5 hPa ESE 9.7 km/h 9.7 km/h 93% 0.0 mm 0 W/m2
02:39 9.6 °C 8.7 °C 1013.9 hPa SW 3.2 km/h 3.2 km/h 94% 0.0 mm 0 W/m2
02:44 9.5 °C 8.6 °C 1013.9 hPa Calm   8 km/h 94% 0.0 mm 0 W/m2
02:49 9.5 °C 8.6 °C 1013.9 hPa SW 1.4 km/h 4.8 km/h 94% 0.0 mm 0 W/m2
02:54 9.5 °C 8.6 °C 1013.9 hPa ENE 1.4 km/h 8 km/h 94% 0.0 mm 0 W/m2
02:59 9.5 °C 8.6 °C 1013.9 hPa Calm   3.2 km/h 94% 0.0 mm 0 W/m2
03:04 9.5 °C 8.6 °C 1013.9 hPa East 1.4 km/h 3.2 km/h 94% 0.0 mm 0 W/m2
03:09 9.5 °C 8.6 °C 1013.9 hPa WNW 4.7 km/h 6.4 km/h 94% 0.0 mm 0 W/m2
03:14 9.5 °C 8.6 °C 1013.9 hPa NW 3.2 km/h 3.2 km/h 94% 0.0 mm 0 W/m2
03:19 9.6 °C 8.7 °C 1013.9 hPa SSW 6.4 km/h 9.7 km/h 94% 0.0 mm 0 W/m2
03:24 9.6 °C 8.7 °C 1013.9 hPa NNW 4.7 km/h 8 km/h 94% 0.0 mm 0 W/m2
03:29 9.7 °C 8.8 °C 1014.2 hPa Calm   4.8 km/h 94% 0.0 mm 0 W/m2
03:34 9.7 °C 8.8 °C 1014.2 hPa North 3.2 km/h 8 km/h 94% 0.0 mm 0 W/m2
03:39 9.7 °C 8.8 °C 1014.2 hPa NNW 3.2 km/h 3.2 km/h 94% 0.0 mm 0 W/m2
03:44 9.8 °C 8.9 °C 1014.2 hPa WSW 4.7 km/h 6.4 km/h 94% 0.0 mm 0 W/m2
03:49 9.8 °C 8.9 °C 1014.2 hPa Calm     94% 0.0 mm 0 W/m2
03:54 9.9 °C 9 °C 1014.2 hPa SW 1.4 km/h 9.7 km/h 94% 0.0 mm 0 W/m2
03:59 10 °C 9.1 °C 1014.2 hPa NNW 1.4 km/h 3.2 km/h 94% 0.0 mm 0 W/m2
04:04 10.1 °C 9.2 °C 1014.2 hPa NE 1.4 km/h 3.2 km/h 94% 0.0 mm 0 W/m2
04:09 10.1 °C 9.2 °C 1014.2 hPa NNW 3.2 km/h 4.8 km/h 94% 0.0 mm 0 W/m2
04:14 10.1 °C 9 °C 1014.2 hPa Calm   14.5 km/h 93% 0.0 mm 0 W/m2
04:19 10.1 °C 9 °C 1014.2 hPa Calm   3.2 km/h 93% 0.0 mm 0 W/m2
04:24 10.1 °C 9 °C 1014.2 hPa SW 1.4 km/h 14.5 km/h 93% 0.0 mm 0 W/m2
04:29 10.2 °C 9.1 °C 1014.6 hPa ENE 1.4 km/h 4.8 km/h 93% 0.0 mm 0 W/m2
04:34 10.2 °C 9.1 °C 1014.6 hPa NW 4.7 km/h 11.3 km/h 93% 0.0 mm 0 W/m2
04:39 10.2 °C 9.1 °C 1014.6 hPa Calm     93% 0.0 mm 0 W/m2
04:44 10.2 °C 9.1 °C 1014.6 hPa NNW 3.2 km/h 4.8 km/h 93% 0.0 mm 0 W/m2
04:49 10.2 °C 9.1 °C 1014.6 hPa WSW 4.7 km/h 4.8 km/h 93% 0.0 mm 0 W/m2
04:54 10.2 °C 9.1 °C 1014.6 hPa WNW 1.4 km/h 6.4 km/h 93% 0.0 mm 0 W/m2
04:59 10.2 °C 9.1 °C 1014.6 hPa NW 1.4 km/h 4.8 km/h 93% 0.0 mm 0 W/m2
05:04 10.2 °C 9.1 °C 1014.6 hPa West 3.2 km/h 8 km/h 93% 0.0 mm 0 W/m2
05:09 10.2 °C 9.1 °C 1014.9 hPa NNW 1.4 km/h 4.8 km/h 93% 0.0 mm 0 W/m2
05:14 10.2 °C 9.1 °C 1014.9 hPa West 1.4 km/h 8 km/h 93% 0.0 mm 0 W/m2
05:19 10.2 °C 9.1 °C 1014.9 hPa North 3.2 km/h 6.4 km/h 93% 0.0 mm 0 W/m2
05:24 10.2 °C 9.1 °C 1014.9 hPa WNW 1.4 km/h 6.4 km/h 93% 0.0 mm 0 W/m2
05:29 10.2 °C 9.1 °C 1014.9 hPa WSW 6.4 km/h 8 km/h 93% 0.0 mm 0 W/m2
05:34 10.1 °C 8.9 °C 1014.9 hPa NNW 3.2 km/h 4.8 km/h 92% 0.0 mm 0 W/m2
05:39 10.1 °C 8.9 °C 1014.9 hPa Calm   4.8 km/h 92% 0.0 mm 0 W/m2
05:44 10.1 °C 9 °C 1015.2 hPa NW 4.7 km/h 4.8 km/h 93% 0.0 mm 0 W/m2
05:49 10.1 °C 9 °C 1015.2 hPa Calm   4.8 km/h 93% 0.0 mm 0 W/m2
05:54 10.1 °C 8.9 °C 1015.2 hPa Calm   6.4 km/h 92% 0.0 mm 0 W/m2
05:59 10.1 °C 8.9 °C 1015.2 hPa WNW 1.4 km/h 9.7 km/h 92% 0.0 mm 0 W/m2
06:04 10.1 °C 8.9 °C 1015.2 hPa NE 3.2 km/h 6.4 km/h 92% 0.0 mm 0 W/m2
06:09 10.1 °C 8.9 °C 1015.2 hPa Calm   4.8 km/h 92% 0.0 mm 0 W/m2
06:14 10.1 °C 8.9 °C 1015.2 hPa WNW 3.2 km/h 6.4 km/h 92% 0.0 mm 0 W/m2
06:19 10.1 °C 8.9 °C 1015.2 hPa WSW 3.2 km/h 8 km/h 92% 0.0 mm 0 W/m2
06:24 10 °C 8.9 °C 1015.2 hPa NW 1.4 km/h 11.3 km/h 93% 0.0 mm 0 W/m2
06:29 10 °C 8.9 °C 1015.6 hPa WNW 4.7 km/h 4.8 km/h 93% 0.0 mm 0 W/m2
06:34 10 °C 8.9 °C 1015.6 hPa WNW 1.4 km/h 3.2 km/h 93% 0.0 mm 0 W/m2
06:39 10 °C 8.9 °C 1015.6 hPa NNW 1.4 km/h 3.2 km/h 93% 0.0 mm 0 W/m2
06:44 9.9 °C 8.8 °C 1015.6 hPa Calm   6.4 km/h 93% 0.0 mm 0 W/m2
06:49 9.9 °C 8.8 °C 1015.6 hPa ENE 3.2 km/h 8 km/h 93% 0.0 mm 0 W/m2
06:54 9.9 °C 8.8 °C 1015.2 hPa Calm   4.8 km/h 93% 0.2 mm 0 W/m2
06:59 9.9 °C 8.8 °C 1015.6 hPa West 3.2 km/h 12.9 km/h 93% 0.2 mm 0 W/m2
07:04 9.8 °C 8.7 °C 1015.6 hPa SE 3.2 km/h 3.2 km/h 93% 0.2 mm 0 W/m2
07:09 9.8 °C 8.7 °C 1015.6 hPa Calm   11.3 km/h 93% 0.2 mm 0 W/m2
07:14 9.8 °C 8.7 °C 1015.6 hPa West 1.4 km/h 6.4 km/h 93% 0.2 mm 0 W/m2
07:19 9.8 °C 8.7 °C 1015.6 hPa WNW 3.2 km/h 8 km/h 93% 0.2 mm 0 W/m2
07:24 9.8 °C 8.7 °C 1015.9 hPa West 3.2 km/h 4.8 km/h 93% 0.2 mm 0 W/m2
07:29 9.8 °C 8.7 °C 1015.9 hPa Calm   4.8 km/h 93% 0.2 mm 0 W/m2
07:34 9.8 °C 8.7 °C 1015.9 hPa Calm   6.4 km/h 93% 0.2 mm 0 W/m2
07:39 9.8 °C 8.7 °C 1016.3 hPa WSW 7.9 km/h 8 km/h 93% 0.2 mm 0 W/m2
07:44 9.8 °C 8.7 °C 1016.3 hPa NW 3.2 km/h 8 km/h 93% 0.2 mm 0 W/m2
07:49 9.8 °C 8.7 °C 1016.3 hPa NW 6.4 km/h 9.7 km/h 93% 0.2 mm 5 W/m2
07:54 9.8 °C 8.7 °C 1016.3 hPa West 4.7 km/h 19.3 km/h 93% 0.0 mm 7 W/m2
07:59 9.8 °C 8.7 °C 1016.3 hPa NW 6.4 km/h 8 km/h 93% 0.0 mm 7 W/m2
08:04 9.8 °C 8.7 °C 1016.3 hPa WNW 4.7 km/h 19.3 km/h 93% 0.0 mm 12 W/m2
08:09 9.9 °C 8.7 °C 1016.3 hPa WNW 3.2 km/h 6.4 km/h 92% 0.0 mm 25 W/m2
08:14 9.9 °C 8.7 °C 1016.3 hPa WNW 3.2 km/h 12.9 km/h 92% 0.0 mm 21 W/m2
08:19 9.9 °C 8.8 °C 1016.3 hPa NNW 4.7 km/h 9.7 km/h 93% 0.0 mm 32 W/m2
08:24 9.9 °C 8.7 °C 1016.6 hPa West 9.7 km/h 16.1 km/h 92% 0.0 mm 30 W/m2
08:29 9.9 °C 8.8 °C 1016.6 hPa WNW 3.2 km/h 4.8 km/h 93% 0.0 mm 33 W/m2
08:34 9.9 °C 8.7 °C 1016.6 hPa WNW 7.9 km/h 12.9 km/h 92% 0.0 mm 33 W/m2
08:39 9.9 °C 8.7 °C 1016.6 hPa WNW 1.4 km/h 11.3 km/h 92% 0.0 mm 26 W/m2
08:44 9.9 °C 8.8 °C 1016.6 hPa North 1.4 km/h 16.1 km/h 93% 0.0 mm 56 W/m2
08:49 9.9 °C 8.8 °C 1016.6 hPa NW 3.2 km/h 16.1 km/h 93% 0.0 mm 56 W/m2
08:54 9.9 °C 8.8 °C 1016.6 hPa WSW 1.4 km/h 6.4 km/h 93% 0.0 mm 63 W/m2
08:59 10 °C 8.9 °C 1016.6 hPa NW 4.7 km/h 11.3 km/h 93% 0.0 mm 39 W/m2
09:04 10.1 °C 8.9 °C 1016.9 hPa WSW 3.2 km/h 19.3 km/h 92% 0.0 mm 84 W/m2
09:09 10.1 °C 8.9 °C 1016.9 hPa NNW 9.7 km/h 16.1 km/h 92% 0.0 mm 70 W/m2
09:14 10.2 °C 9 °C 1016.9 hPa East 1.4 km/h 12.9 km/h 92% 0.0 mm 91 W/m2
09:19 10.3 °C 9.1 °C 1016.9 hPa WNW 1.4 km/h 17.7 km/h 92% 0.0 mm 146 W/m2
09:24 10.4 °C 9.2 °C 1016.9 hPa WNW 3.2 km/h 11.3 km/h 92% 0.0 mm 149 W/m2
09:29 10.5 °C 9.3 °C 1016.9 hPa NW 1.4 km/h 17.7 km/h 92% 0.0 mm 153 W/m2
09:34 10.6 °C 9.2 °C 1016.9 hPa SW 4.7 km/h 6.4 km/h 91% 0.0 mm 113 W/m2
09:39 10.6 °C 9.2 °C 1016.9 hPa WNW 6.4 km/h 6.4 km/h 91% 0.0 mm 128 W/m2
09:44 10.6 °C 9.2 °C 1016.9 hPa WNW 3.2 km/h 9.7 km/h 91% 0.0 mm 158 W/m2
09:49 10.6 °C 9.2 °C 1016.9 hPa NW 4.7 km/h 8 km/h 91% 0.0 mm 105 W/m2
09:54 10.7 °C 9.3 °C 1017.3 hPa West 1.4 km/h 9.7 km/h 91% 0.0 mm 93 W/m2
09:59 10.7 °C 9.3 °C 1017.3 hPa WNW 4.7 km/h 6.4 km/h 91% 0.0 mm 79 W/m2
10:04 10.7 °C 9.3 °C 1016.9 hPa West 1.4 km/h 9.7 km/h 91% 0.0 mm 102 W/m2
10:09 10.7 °C 9.3 °C 1017.3 hPa NW 4.7 km/h 16.1 km/h 91% 0.0 mm 148 W/m2
10:14 10.8 °C 9.4 °C 1017.3 hPa WSW 3.2 km/h 3.2 km/h 91% 0.0 mm 128 W/m2
10:19 10.8 °C 9.4 °C 1017.3 hPa NE 1.4 km/h 4.8 km/h 91% 0.0 mm 81 W/m2
10:24 10.9 °C 9.3 °C 1017.3 hPa NW 3.2 km/h 9.7 km/h 90% 0.0 mm 83 W/m2
10:29 10.9 °C 9.3 °C 1017.3 hPa South 6.4 km/h 8 km/h 90% 0.0 mm 91 W/m2
10:34 11 °C 9.4 °C 1017.3 hPa West 4.7 km/h 6.4 km/h 90% 0.0 mm 118 W/m2
10:39 11.1 °C 9.5 °C 1017.3 hPa ENE 3.2 km/h 4.8 km/h 90% 0.0 mm 207 W/m2
10:44 11.2 °C 9.6 °C 1017.3 hPa NW 6.4 km/h 11.3 km/h 90% 0.0 mm 139 W/m2
10:50 11.3 °C 9.7 °C 1017.3 hPa North 1.4 km/h 16.1 km/h 90% 0.0 mm 446 W/m2
10:55 11.6 °C 10 °C 1017.6 hPa WSW 7.9 km/h 16.1 km/h 90% 0.0 mm 195 W/m2
11:00 11.7 °C 9.8 °C 1017.6 hPa WNW 3.2 km/h 9.7 km/h 88% 0.0 mm 74 W/m2
11:05 11.7 °C 9.8 °C 1017.6 hPa West 3.2 km/h 16.1 km/h 88% 0.0 mm 81 W/m2
11:10 11.7 °C 9.8 °C 1017.6 hPa East 4.7 km/h 4.8 km/h 88% 0.0 mm 142 W/m2
11:15 11.8 °C 9.9 °C 1017.6 hPa Calm   8 km/h 88% 0.0 mm 186 W/m2
11:20 11.8 °C 9.9 °C 1017.6 hPa NNW 3.2 km/h 4.8 km/h 88% 0.0 mm 151 W/m2
11:25 11.9 °C 9.8 °C 1018.0 hPa West 4.7 km/h 12.9 km/h 87% 0.0 mm 183 W/m2
11:30 11.9 °C 9.8 °C 1018.0 hPa WNW 6.4 km/h 22.5 km/h 87% 0.0 mm 332 W/m2
11:35 12.1 °C 10 °C 1018.0 hPa WNW 1.4 km/h 12.9 km/h 87% 0.0 mm 186 W/m2
11:40 12.2 °C 9.9 °C 1018.0 hPa WSW 3.2 km/h 16.1 km/h 86% 0.0 mm 234 W/m2
11:45 12.2 °C 9.9 °C 1018.0 hPa West 6.4 km/h 9.7 km/h 86% 0.0 mm 255 W/m2
11:50 12.3 °C 10 °C 1018.0 hPa SW 1.4 km/h 19.3 km/h 86% 0.0 mm 246 W/m2
11:55 12.3 °C 9.9 °C 1018.0 hPa SW 3.2 km/h 11.3 km/h 85% 0.0 mm 155 W/m2
12:00 12.3 °C 9.9 °C 1018.0 hPa NW 3.2 km/h 19.3 km/h 85% 0.0 mm 162 W/m2
12:05 12.3 °C 10 °C 1018.0 hPa WNW 3.2 km/h 8 km/h 86% 0.0 mm 107 W/m2
12:10 12.2 °C 9.8 °C 1018.0 hPa North 9.7 km/h 17.7 km/h 85% 0.0 mm 81 W/m2
12:15 12.2 °C 9.8 °C 1018.3 hPa SSW 4.7 km/h 6.4 km/h 85% 0.0 mm 102 W/m2
12:20 12.1 °C 9.7 °C 1018.0 hPa NE 3.2 km/h 6.4 km/h 85% 0.0 mm 120 W/m2
12:25 12.2 °C 9.8 °C 1018.3 hPa SSW 6.4 km/h 6.4 km/h 85% 0.0 mm 202 W/m2
12:30 12.3 °C 9.9 °C 1018.3 hPa West 9.7 km/h 9.7 km/h 85% 0.0 mm 153 W/m2
12:35 12.3 °C 9.7 °C 1018.3 hPa West 9.7 km/h 14.5 km/h 84% 0.0 mm 149 W/m2
12:40 12.3 °C 9.7 °C 1018.3 hPa West 11.1 km/h 12.9 km/h 84% 0.0 mm 118 W/m2
12:45 12.4 °C 9.8 °C 1018.3 hPa WNW 4.7 km/h 14.5 km/h 84% 0.0 mm 81 W/m2
12:50 12.3 °C 9.5 °C 1018.3 hPa WSW 13 km/h 12.9 km/h 83% 0.0 mm 132 W/m2
12:55 12.3 °C 9.5 °C 1018.3 hPa West 16.3 km/h 20.9 km/h 83% 0.0 mm 105 W/m2
13:00 12.3 °C 9.3 °C 1018.3 hPa NW 14.3 km/h 17.7 km/h 82% 0.0 mm 120 W/m2
13:05 12.3 °C 9.3 °C 1018.3 hPa WNW 11.1 km/h 20.9 km/h 82% 0.0 mm 176 W/m2
13:10 12.3 °C 9.3 °C 1018.3 hPa SW 6.4 km/h 14.5 km/h 82% 0.0 mm 109 W/m2
13:15 12.3 °C 9.5 °C 1018.6 hPa WSW 7.9 km/h 19.3 km/h 83% 0.0 mm 114 W/m2
13:20 12.3 °C 9.7 °C 1018.6 hPa West 9.7 km/h 12.9 km/h 84% 0.0 mm 120 W/m2
13:25 12.1 °C 9.5 °C 1018.6 hPa NNW 3.2 km/h 16.1 km/h 84% 0.0 mm 113 W/m2
13:30 12 °C 9.6 °C 1018.6 hPa WNW 3.2 km/h 6.4 km/h 85% 0.0 mm 125 W/m2
13:35 11.9 °C 9.6 °C 1018.6 hPa WNW 3.2 km/h 16.1 km/h 86% 0.2 mm 100 W/m2
13:40 11.8 °C 9.7 °C 1018.6 hPa West 6.4 km/h 14.5 km/h 87% 0.2 mm 98 W/m2
13:45 11.7 °C 9.6 °C 1018.6 hPa West 3.2 km/h 6.4 km/h 87% 0.2 mm 79 W/m2
13:50 11.7 °C 9.8 °C 1018.6 hPa Calm   14.5 km/h 88% 0.5 mm 98 W/m2
13:55 11.7 °C 9.8 °C 1018.6 hPa West 3.2 km/h 4.8 km/h 88% 0.5 mm 141 W/m2
14:00 11.7 °C 9.8 °C 1018.6 hPa Calm   1.6 km/h 88% 0.5 mm 160 W/m2
14:05 11.8 °C 10 °C 1018.6 hPa NW 3.2 km/h 4.8 km/h 89% 0.5 mm 135 W/m2
14:10 11.9 °C 10.1 °C 1018.6 hPa WSW 4.7 km/h 8 km/h 89% 0.5 mm 116 W/m2
14:15 11.9 °C 10.1 °C 1018.6 hPa Calm   3.2 km/h 89% 0.5 mm 155 W/m2
14:20 12 °C 10.2 °C 1018.6 hPa Calm   6.4 km/h 89% 0.5 mm 167 W/m2
14:25 12.1 °C 10.3 °C 1018.6 hPa Calm   3.2 km/h 89% 0.5 mm 153 W/m2
14:30 12.2 °C 10.4 °C 1018.6 hPa NW 3.2 km/h 9.7 km/h 89% 0.5 mm 185 W/m2
14:35 12.3 °C 10.4 °C 1018.6 hPa South 1.4 km/h 8 km/h 88% 0.5 mm 225 W/m2
14:40 12.3 °C 10.5 °C 1018.6 hPa WNW 1.4 km/h 9.7 km/h 89% 0.5 mm 232 W/m2
14:45 12.4 °C 10.5 °C 1018.6 hPa NW 1.4 km/h 11.3 km/h 88% 0.5 mm 149 W/m2
14:50 12.4 °C 10.5 °C 1018.6 hPa NW 3.2 km/h 11.3 km/h 88% 0.2 mm 139 W/m2
14:55 12.4 °C 10.5 °C 1018.6 hPa West 4.7 km/h 8 km/h 88% 0.2 mm 137 W/m2
15:00 12.3 °C 10.4 °C 1019.0 hPa West 4.7 km/h 16.1 km/h 88% 0.5 mm 97 W/m2
15:05 12.2 °C 10.1 °C 1019.0 hPa West 4.7 km/h 14.5 km/h 87% 0.5 mm 95 W/m2
15:10 11.9 °C 10 °C 1018.6 hPa West 1.4 km/h 16.1 km/h 88% 0.5 mm 183 W/m2
15:15 11.9 °C 10.3 °C 1019.0 hPa East 4.7 km/h 4.8 km/h 90% 0.5 mm 105 W/m2
15:20 11.9 °C 10.3 °C 1019.0 hPa West 1.4 km/h 12.9 km/h 90% 0.8 mm 76 W/m2
15:25 11.9 °C 10.5 °C 1019.0 hPa WNW 3.2 km/h 11.3 km/h 91% 1.0 mm 192 W/m2
15:30 12.1 °C 10.7 °C 1019.0 hPa NW 4.7 km/h 6.4 km/h 91% 1.0 mm 148 W/m2
15:35 12.1 °C 10.5 °C 1019.0 hPa NNW 6.4 km/h 11.3 km/h 90% 1.0 mm 169 W/m2
15:40 12.1 °C 10.5 °C 1019.0 hPa NW 3.2 km/h 11.3 km/h 90% 1.0 mm 130 W/m2
15:45 12.1 °C 10.5 °C 1019.3 hPa WNW 11.1 km/h 16.1 km/h 90% 1.3 mm 158 W/m2
15:50 12.1 °C 10.5 °C 1019.3 hPa West 6.4 km/h 12.9 km/h 90% 1.3 mm 100 W/m2
15:55 12 °C 10.4 °C 1019.3 hPa WNW 4.7 km/h 16.1 km/h 90% 1.5 mm 58 W/m2
16:01 11.9 °C 10.3 °C 1019.3 hPa WNW 7.9 km/h 12.9 km/h 90% 1.3 mm 135 W/m2
16:06 11.8 °C 10.4 °C 1019.3 hPa WSW 9.7 km/h 14.5 km/h 91% 1.0 mm 113 W/m2
16:11 11.8 °C 10.2 °C 1019.6 hPa NW 7.9 km/h 16.1 km/h 90% 0.8 mm 84 W/m2
16:16 11.7 °C 10.3 °C 1019.6 hPa West 6.4 km/h 9.7 km/h 91% 0.8 mm 60 W/m2
16:21 11.7 °C 10.3 °C 1019.6 hPa WSW 3.2 km/h 11.3 km/h 91% 0.8 mm 47 W/m2
16:26 11.6 °C 10.2 °C 1019.6 hPa WNW 4.7 km/h 11.3 km/h 91% 0.5 mm 105 W/m2
16:31 11.5 °C 10.2 °C 1019.6 hPa WNW 3.2 km/h 9.7 km/h 92% 0.5 mm 83 W/m2
16:36 11.5 °C 10.1 °C 1019.6 hPa WNW 4.7 km/h 14.5 km/h 91% 0.5 mm 100 W/m2
16:41 11.5 °C 10.1 °C 1019.6 hPa WNW 6.4 km/h 9.7 km/h 91% 0.5 mm 88 W/m2
16:46 11.4 °C 10 °C 1019.6 hPa WNW 7.9 km/h 16.1 km/h 91% 0.5 mm 98 W/m2
16:51 11.4 °C 10.1 °C 1019.6 hPa South 1.4 km/h 12.9 km/h 92% 0.5 mm 90 W/m2
16:56 11.4 °C 10 °C 1019.6 hPa SSW 3.2 km/h 11.3 km/h 91% 0.5 mm 86 W/m2
17:01 11.4 °C 10.1 °C 1019.6 hPa WNW 1.4 km/h 6.4 km/h 92% 0.5 mm 109 W/m2
17:06 11.4 °C 10.1 °C 1019.6 hPa West 6.4 km/h 12.9 km/h 92% 0.5 mm 95 W/m2
17:11 11.4 °C 10.1 °C 1020.0 hPa West 3.2 km/h 12.9 km/h 92% 0.5 mm 67 W/m2
17:16 11.4 °C 10.1 °C 1020.0 hPa WNW 4.7 km/h 8 km/h 92% 0.5 mm 69 W/m2
17:21 11.4 °C 10.1 °C 1020.0 hPa West 6.4 km/h 22.5 km/h 92% 0.2 mm 63 W/m2
17:26 11.4 °C 10.1 °C 1020.0 hPa WSW 6.4 km/h 12.9 km/h 92% 0.2 mm 67 W/m2
17:31 11.4 °C 10.1 °C 1020.0 hPa WSW 4.7 km/h 22.5 km/h 92% 0.2 mm 62 W/m2
17:36 11.4 °C 10.1 °C 1020.0 hPa West 4.7 km/h 9.7 km/h 92% 0.2 mm 54 W/m2
17:41 11.4 °C 10.1 °C 1020.0 hPa WNW 4.7 km/h 6.4 km/h 92% 0.2 mm 46 W/m2
17:46 11.4 °C 10.1 °C 1020.3 hPa West 6.4 km/h 11.3 km/h 92% 0.2 mm 47 W/m2
17:51 11.3 °C 10 °C 1020.0 hPa West 1.4 km/h 6.4 km/h 92% 0.2 mm 49 W/m2
17:56 11.3 °C 10 °C 1020.3 hPa West 3.2 km/h 9.7 km/h 92% 0.0 mm 44 W/m2
18:01 11.3 °C 10 °C 1020.3 hPa West 3.2 km/h 11.3 km/h 92% 0.0 mm 42 W/m2
18:06 11.3 °C 10 °C 1020.3 hPa West 4.7 km/h 12.9 km/h 92% 0.0 mm 37 W/m2
18:11 11.3 °C 10 °C 1020.3 hPa WSW 3.2 km/h 6.4 km/h 92% 0.0 mm 32 W/m2
18:16 11.3 °C 10 °C 1020.3 hPa West 4.7 km/h 6.4 km/h 92% 0.0 mm 33 W/m2
18:21 11.3 °C 10 °C 1020.7 hPa West 4.7 km/h 6.4 km/h 92% 0.0 mm 21 W/m2
18:26 11.2 °C 9.9 °C 1020.7 hPa West 4.7 km/h 9.7 km/h 92% 0.0 mm 18 W/m2
18:31 11.2 °C 9.9 °C 1020.7 hPa NW 7.9 km/h 17.7 km/h 92% 0.0 mm 16 W/m2
18:36 11.2 °C 9.9 °C 1020.7 hPa WNW 4.7 km/h 11.3 km/h 92% 0.0 mm 18 W/m2
18:41 11.2 °C 9.9 °C 1020.7 hPa West 3.2 km/h 12.9 km/h 92% 0.0 mm 14 W/m2
18:46 11.2 °C 9.9 °C 1020.7 hPa West 3.2 km/h 11.3 km/h 92% 0.0 mm 7 W/m2
18:51 11.2 °C 10.1 °C 1021.0 hPa West 6.4 km/h 11.3 km/h 93% 0.0 mm 5 W/m2
18:56 11.2 °C 10.1 °C 1021.0 hPa WNW 11.1 km/h 11.3 km/h 93% 0.0 mm 0 W/m2
19:01 11.2 °C 10.1 °C 1021.0 hPa WSW 4.7 km/h 6.4 km/h 93% 0.0 mm 0 W/m2
19:06 11.2 °C 10.1 °C 1021.0 hPa WSW 4.7 km/h 9.7 km/h 93% 0.0 mm 0 W/m2
19:11 11.2 °C 10.1 °C 1021.3 hPa WSW 4.7 km/h 4.8 km/h 93% 0.2 mm 0 W/m2
19:16 11.1 °C 10 °C 1021.3 hPa SW 4.7 km/h 6.4 km/h 93% 0.2 mm 0 W/m2
19:21 11.1 °C 10 °C 1021.3 hPa WSW 6.4 km/h 11.3 km/h 93% 0.5 mm 0 W/m2
19:26 11 °C 9.9 °C 1021.3 hPa West 6.4 km/h 8 km/h 93% 0.5 mm 0 W/m2
19:31 11 °C 9.9 °C 1021.3 hPa WNW 4.7 km/h 6.4 km/h 93% 0.5 mm 0 W/m2
19:36 11 °C 9.9 °C 1021.3 hPa West 4.7 km/h 6.4 km/h 93% 0.5 mm 0 W/m2
19:41 11 °C 9.9 °C 1021.3 hPa West 9.7 km/h 12.9 km/h 93% 0.8 mm 0 W/m2
19:46 11 °C 10.1 °C 1021.3 hPa West 1.4 km/h 4.8 km/h 94% 0.8 mm 0 W/m2
19:51 10.9 °C 10 °C 1021.7 hPa WNW 4.7 km/h 12.9 km/h 94% 0.8 mm 0 W/m2
19:56 10.9 °C 10 °C 1021.7 hPa WNW 3.2 km/h 4.8 km/h 94% 0.8 mm 0 W/m2
20:01 10.9 °C 10 °C 1021.7 hPa West 3.2 km/h 6.4 km/h 94% 1.0 mm 0 W/m2
20:06 10.9 °C 10 °C 1021.7 hPa West 9.7 km/h 12.9 km/h 94% 1.0 mm 0 W/m2
20:11 10.9 °C 10 °C 1021.7 hPa WNW 4.7 km/h 4.8 km/h 94% 1.0 mm 0 W/m2
20:16 10.9 °C 10 °C 1022.0 hPa WNW 3.2 km/h 12.9 km/h 94% 1.5 mm 0 W/m2
20:21 10.8 °C 9.9 °C 1022.0 hPa West 1.4 km/h 3.2 km/h 94% 2.0 mm 0 W/m2
20:26 10.8 °C 9.9 °C 1022.0 hPa West 1.4 km/h 4.8 km/h 94% 2.3 mm 0 W/m2
20:31 10.8 °C 9.9 °C 1022.4 hPa WNW 4.7 km/h 6.4 km/h 94% 2.3 mm 0 W/m2
20:36 10.8 °C 10 °C 1022.4 hPa Calm     95% 2.3 mm 0 W/m2
20:41 10.8 °C 10 °C 1022.4 hPa West 6.4 km/h 6.4 km/h 95% 2.3 mm 0 W/m2
20:46 10.8 °C 10 °C 1022.4 hPa West 3.2 km/h 4.8 km/h 95% 2.3 mm 0 W/m2
20:51 10.8 °C 10 °C 1022.4 hPa West 3.2 km/h 4.8 km/h 95% 2.3 mm 0 W/m2
20:56 10.7 °C 9.9 °C 1022.4 hPa WSW 3.2 km/h 6.4 km/h 95% 2.3 mm 0 W/m2
21:01 10.7 °C 9.9 °C 1022.4 hPa West 6.4 km/h 12.9 km/h 95% 2.0 mm 0 W/m2
21:06 10.8 °C 10 °C 1022.4 hPa WSW 3.2 km/h 9.7 km/h 95% 2.0 mm 0 W/m2
21:11 10.8 °C 10 °C 1022.4 hPa West 4.7 km/h 9.7 km/h 95% 1.8 mm 0 W/m2
21:16 10.8 °C 9.9 °C 1022.4 hPa WNW 6.4 km/h 12.9 km/h 94% 1.3 mm 0 W/m2
21:21 10.8 °C 9.9 °C 1022.7 hPa West 4.7 km/h 9.7 km/h 94% 0.5 mm 0 W/m2
21:26 10.9 °C 10 °C 1022.7 hPa West 3.2 km/h 6.4 km/h 94% 0.2 mm 0 W/m2
21:31 10.9 °C 10 °C 1022.7 hPa West 4.7 km/h 6.4 km/h 94% 0.2 mm 0 W/m2
21:36 10.8 °C 9.9 °C 1022.7 hPa WSW 7.9 km/h 8 km/h 94% 0.0 mm 0 W/m2
21:41 10.8 °C 9.9 °C 1022.7 hPa WSW 6.4 km/h 9.7 km/h 94% 0.0 mm 0 W/m2
21:46 10.8 °C 9.9 °C 1023.0 hPa West 4.7 km/h 8 km/h 94% 0.0 mm 0 W/m2
21:51 10.8 °C 9.9 °C 1023.0 hPa WNW 1.4 km/h 4.8 km/h 94% 0.0 mm 0 W/m2
21:56 10.7 °C 9.8 °C 1023.0 hPa West 6.4 km/h 9.7 km/h 94% 0.0 mm 0 W/m2
22:01 10.7 °C 9.8 °C 1023.0 hPa WNW 7.9 km/h 9.7 km/h 94% 0.0 mm 0 W/m2
22:06 10.8 °C 9.9 °C 1023.0 hPa West 3.2 km/h 11.3 km/h 94% 0.0 mm 0 W/m2
22:11 10.8 °C 9.9 °C 1023.0 hPa WNW 4.7 km/h 11.3 km/h 94% 0.0 mm 0 W/m2
22:16 10.8 °C 9.9 °C 1023.0 hPa West 6.4 km/h 9.7 km/h 94% 0.0 mm 0 W/m2
22:21 10.8 °C 9.9 °C 1023.0 hPa West 6.4 km/h 14.5 km/h 94% 0.0 mm 0 W/m2
22:26 10.9 °C 10 °C 1023.0 hPa West 9.7 km/h 14.5 km/h 94% 0.0 mm 0 W/m2
22:31 10.9 °C 10 °C 1023.0 hPa West 4.7 km/h 11.3 km/h 94% 0.0 mm 0 W/m2
22:36 10.9 °C 10 °C 1023.0 hPa WSW 6.4 km/h 11.3 km/h 94% 0.0 mm 0 W/m2
22:41 10.8 °C 9.9 °C 1023.0 hPa West 9.7 km/h 9.7 km/h 94% 0.0 mm 0 W/m2
22:46 10.8 °C 9.9 °C 1023.0 hPa WNW 4.7 km/h 11.3 km/h 94% 0.0 mm 0 W/m2
22:51 10.8 °C 9.9 °C 1023.0 hPa West 6.4 km/h 9.7 km/h 94% 0.0 mm 0 W/m2
22:56 10.8 °C 9.9 °C 1023.4 hPa West 1.4 km/h 9.7 km/h 94% 0.0 mm 0 W/m2
23:01 10.8 °C 9.9 °C 1023.4 hPa West 9.7 km/h 9.7 km/h 94% 0.0 mm 0 W/m2
23:06 10.8 °C 9.9 °C 1023.4 hPa West 3.2 km/h 12.9 km/h 94% 0.0 mm 0 W/m2
23:11 10.8 °C 9.9 °C 1023.4 hPa WNW 3.2 km/h 14.5 km/h 94% 0.0 mm 0 W/m2
23:16 10.8 °C 9.9 °C 1023.4 hPa West 4.7 km/h 11.3 km/h 94% 0.0 mm 0 W/m2
23:21 10.7 °C 9.6 °C 1023.4 hPa West 4.7 km/h 9.7 km/h 93% 0.0 mm 0 W/m2
23:26 10.7 °C 9.6 °C 1023.4 hPa WSW 4.7 km/h 16.1 km/h 93% 0.0 mm 0 W/m2
23:31 10.6 °C 9.5 °C 1023.4 hPa West 6.4 km/h 9.7 km/h 93% 0.0 mm 0 W/m2
23:36 10.6 °C 9.7 °C 1023.4 hPa West 3.2 km/h 16.1 km/h 94% 0.0 mm 0 W/m2
23:41 10.6 °C 9.7 °C 1023.4 hPa West 9.7 km/h 12.9 km/h 94% 0.0 mm 0 W/m2
23:46 10.7 °C 9.8 °C 1023.4 hPa WSW 14.3 km/h 14.5 km/h 94% 0.0 mm 0 W/m2
23:51 10.7 °C 9.6 °C 1023.4 hPa West 4.7 km/h 12.9 km/h 93% 0.0 mm 0 W/m2
23:56 10.7 °C 9.6 °C 1023.4 hPa WNW 11.1 km/h 12.9 km/h 93% 0.0 mm 0 W/m2
Juneau County Weather
Compliments of Weather Underground - 4 mb